sensor_id;sensor_type;location;lat;lon;timestamp;temperature;humidity
8593;DHT22;4334;49.982;8.398;2024-02-15T00:00:48;10.10;99.90
8593;DHT22;4334;49.982;8.398;2024-02-15T00:03:15;10.10;99.90
8593;DHT22;4334;49.982;8.398;2024-02-15T00:05:43;10.20;99.90
8593;DHT22;4334;49.982;8.398;2024-02-15T00:08:11;10.10;99.90
8593;DHT22;4334;49.982;8.398;2024-02-15T00:10:37;10.10;99.90
8593;DHT22;4334;49.982;8.398;2024-02-15T00:13:04;10.10;99.90
8593;DHT22;4334;49.982;8.398;2024-02-15T00:15:31;13.30;99.90
8593;DHT22;4334;49.982;8.398;2024-02-15T00:18:00;10.30;99.90
8593;DHT22;4334;49.982;8.398;2024-02-15T00:20:28;10.20;99.90
8593;DHT22;4334;49.982;8.398;2024-02-15T00:22:54;10.10;99.90
8593;DHT22;4334;49.982;8.398;2024-02-15T00:25:22;10.00;99.90
8593;DHT22;4334;49.982;8.398;2024-02-15T00:27:48;10.00;99.90
8593;DHT22;4334;49.982;8.398;2024-02-15T00:30:15;10.10;99.90
8593;DHT22;4334;49.982;8.398;2024-02-15T00:32:42;10.00;99.90
8593;DHT22;4334;49.982;8.398;2024-02-15T00:35:12;10.70;99.90
8593;DHT22;4334;49.982;8.398;2024-02-15T00:37:40;10.00;99.90
8593;DHT22;4334;49.982;8.398;2024-02-15T00:40:07;10.10;99.90
8593;DHT22;4334;49.982;8.398;2024-02-15T00:42:34;10.00;99.90
8593;DHT22;4334;49.982;8.398;2024-02-15T00:45:01;10.00;99.90
8593;DHT22;4334;49.982;8.398;2024-02-15T00:47:27;10.00;99.90
8593;DHT22;4334;49.982;8.398;2024-02-15T00:49:54;10.00;99.90
8593;DHT22;4334;49.982;8.398;2024-02-15T00:52:22;10.60;99.90
8593;DHT22;4334;49.982;8.398;2024-02-15T00:54:49;12.90;99.90
8593;DHT22;4334;49.982;8.398;2024-02-15T00:57:16;10.00;99.90
8593;DHT22;4334;49.982;8.398;2024-02-15T00:59:43;10.00;99.90
8593;DHT22;4334;49.982;8.398;2024-02-15T01:02:09;10.00;99.90
8593;DHT22;4334;49.982;8.398;2024-02-15T01:04:36;10.10;99.90
8593;DHT22;4334;49.982;8.398;2024-02-15T01:07:03;13.10;99.90
8593;DHT22;4334;49.982;8.398;2024-02-15T01:09:31;10.10;99.90
8593;DHT22;4334;49.982;8.398;2024-02-15T01:11:58;10.90;99.90
8593;DHT22;4334;49.982;8.398;2024-02-15T01:14:24;10.10;99.90
8593;DHT22;4334;49.982;8.398;2024-02-15T01:16:55;13.20;99.90
8593;DHT22;4334;49.982;8.398;2024-02-15T01:19:22;10.10;99.90
8593;DHT22;4334;49.982;8.398;2024-02-15T01:21:48;10.20;99.90
8593;DHT22;4334;49.982;8.398;2024-02-15T01:24:15;10.20;99.90
8593;DHT22;4334;49.982;8.398;2024-02-15T01:26:43;10.20;99.90
8593;DHT22;4334;49.982;8.398;2024-02-15T01:29:10;10.20;99.90
8593;DHT22;4334;49.982;8.398;2024-02-15T01:31:37;10.20;99.90
8593;DHT22;4334;49.982;8.398;2024-02-15T01:34:04;10.20;99.90
8593;DHT22;4334;49.982;8.398;2024-02-15T01:36:31;10.30;99.90
8593;DHT22;4334;49.982;8.398;2024-02-15T01:38:57;10.20;99.90
8593;DHT22;4334;49.982;8.398;2024-02-15T01:41:24;10.20;99.90
8593;DHT22;4334;49.982;8.398;2024-02-15T01:43:52;10.20;99.90
8593;DHT22;4334;49.982;8.398;2024-02-15T01:46:19;13.70;99.90
8593;DHT22;4334;49.982;8.398;2024-02-15T01:48:47;10.20;99.90
8593;DHT22;4334;49.982;8.398;2024-02-15T01:51:16;10.20;99.90
8593;DHT22;4334;49.982;8.398;2024-02-15T01:53:43;10.20;99.90
8593;DHT22;4334;49.982;8.398;2024-02-15T01:56:13;10.30;99.90
8593;DHT22;4334;49.982;8.398;2024-02-15T01:58:41;10.20;99.90
8593;DHT22;4334;49.982;8.398;2024-02-15T02:01:11;10.20;99.90
8593;DHT22;4334;49.982;8.398;2024-02-15T02:03:39;10.20;99.90
8593;DHT22;4334;49.982;8.398;2024-02-15T02:06:05;10.30;99.90
8593;DHT22;4334;49.982;8.398;2024-02-15T02:08:33;10.30;99.90
8593;DHT22;4334;49.982;8.398;2024-02-15T02:11:00;12.30;99.90
8593;DHT22;4334;49.982;8.398;2024-02-15T02:13:27;10.30;99.90
8593;DHT22;4334;49.982;8.398;2024-02-15T02:15:54;13.60;99.90
8593;DHT22;4334;49.982;8.398;2024-02-15T02:18:23;10.30;99.90
8593;DHT22;4334;49.982;8.398;2024-02-15T02:20:50;10.30;99.90
8593;DHT22;4334;49.982;8.398;2024-02-15T02:23:17;10.30;99.90
8593;DHT22;4334;49.982;8.398;2024-02-15T02:25:49;10.30;99.90
8593;DHT22;4334;49.982;8.398;2024-02-15T02:28:16;10.30;99.90
8593;DHT22;4334;49.982;8.398;2024-02-15T02:30:43;10.40;99.90
8593;DHT22;4334;49.982;8.398;2024-02-15T02:33:11;14.60;99.90
8593;DHT22;4334;49.982;8.398;2024-02-15T02:35:44;10.30;99.90
8593;DHT22;4334;49.982;8.398;2024-02-15T02:38:12;10.40;99.90
8593;DHT22;4334;49.982;8.398;2024-02-15T02:40:40;10.40;99.90
8593;DHT22;4334;49.982;8.398;2024-02-15T02:43:08;10.40;99.90
8593;DHT22;4334;49.982;8.398;2024-02-15T02:45:35;10.40;99.90
8593;DHT22;4334;49.982;8.398;2024-02-15T02:48:02;10.40;99.90
8593;DHT22;4334;49.982;8.398;2024-02-15T02:50:28;10.30;99.90
8593;DHT22;4334;49.982;8.398;2024-02-15T02:52:55;10.30;99.90
8593;DHT22;4334;49.982;8.398;2024-02-15T02:55:22;10.40;99.90
8593;DHT22;4334;49.982;8.398;2024-02-15T02:57:49;10.40;99.90
8593;DHT22;4334;49.982;8.398;2024-02-15T03:00:17;10.30;99.90
8593;DHT22;4334;49.982;8.398;2024-02-15T03:02:46;10.30;99.90
8593;DHT22;4334;49.982;8.398;2024-02-15T03:05:13;10.30;99.90
8593;DHT22;4334;49.982;8.398;2024-02-15T03:07:40;10.30;99.90
8593;DHT22;4334;49.982;8.398;2024-02-15T03:10:08;10.30;99.90
8593;DHT22;4334;49.982;8.398;2024-02-15T03:12:39;10.20;99.90
8593;DHT22;4334;49.982;8.398;2024-02-15T03:15:07;10.20;99.90
8593;DHT22;4334;49.982;8.398;2024-02-15T03:17:37;10.20;99.90
8593;DHT22;4334;49.982;8.398;2024-02-15T03:20:05;10.20;99.90
8593;DHT22;4334;49.982;8.398;2024-02-15T03:22:37;10.20;99.90
8593;DHT22;4334;49.982;8.398;2024-02-15T03:25:04;10.10;99.90
8593;DHT22;4334;49.982;8.398;2024-02-15T03:27:33;10.10;99.90
8593;DHT22;4334;49.982;8.398;2024-02-15T03:30:01;10.10;99.90
8593;DHT22;4334;49.982;8.398;2024-02-15T03:32:27;10.10;99.90
8593;DHT22;4334;49.982;8.398;2024-02-15T03:34:55;10.10;99.90
8593;DHT22;4334;49.982;8.398;2024-02-15T03:37:22;10.00;99.90
8593;DHT22;4334;49.982;8.398;2024-02-15T03:39:49;10.00;99.90
8593;DHT22;4334;49.982;8.398;2024-02-15T03:42:16;10.00;99.90
8593;DHT22;4334;49.982;8.398;2024-02-15T03:44:42;10.00;99.90
8593;DHT22;4334;49.982;8.398;2024-02-15T03:47:09;10.10;99.90
8593;DHT22;4334;49.982;8.398;2024-02-15T03:49:38;10.00;99.90
8593;DHT22;4334;49.982;8.398;2024-02-15T03:52:06;10.00;99.90
8593;DHT22;4334;49.982;8.398;2024-02-15T03:54:34;10.00;99.90
8593;DHT22;4334;49.982;8.398;2024-02-15T03:57:00;10.00;99.90
8593;DHT22;4334;49.982;8.398;2024-02-15T03:59:27;10.00;99.90
8593;DHT22;4334;49.982;8.398;2024-02-15T04:01:54;10.00;99.90
8593;DHT22;4334;49.982;8.398;2024-02-15T04:04:22;9.90;99.90
8593;DHT22;4334;49.982;8.398;2024-02-15T04:06:48;9.90;99.90
8593;DHT22;4334;49.982;8.398;2024-02-15T04:09:17;9.90;99.90
8593;DHT22;4334;49.982;8.398;2024-02-15T04:11:44;9.90;99.90
8593;DHT22;4334;49.982;8.398;2024-02-15T04:14:12;10.00;99.90
8593;DHT22;4334;49.982;8.398;2024-02-15T04:16:39;9.90;99.90
8593;DHT22;4334;49.982;8.398;2024-02-15T04:19:05;9.90;99.90
8593;DHT22;4334;49.982;8.398;2024-02-15T04:21:31;9.90;99.90
8593;DHT22;4334;49.982;8.398;2024-02-15T04:23:58;9.90;99.90
8593;DHT22;4334;49.982;8.398;2024-02-15T04:26:26;9.90;99.90
8593;DHT22;4334;49.982;8.398;2024-02-15T04:28:55;9.90;99.90
8593;DHT22;4334;49.982;8.398;2024-02-15T04:31:22;9.90;99.90
8593;DHT22;4334;49.982;8.398;2024-02-15T04:33:52;11.90;99.90
8593;DHT22;4334;49.982;8.398;2024-02-15T04:36:18;9.90;99.90
8593;DHT22;4334;49.982;8.398;2024-02-15T04:38:49;9.90;99.90
8593;DHT22;4334;49.982;8.398;2024-02-15T04:41:16;9.90;99.90
8593;DHT22;4334;49.982;8.398;2024-02-15T04:43:47;9.90;99.90
8593;DHT22;4334;49.982;8.398;2024-02-15T04:46:13;9.90;99.90
8593;DHT22;4334;49.982;8.398;2024-02-15T04:48:40;9.90;99.90
8593;DHT22;4334;49.982;8.398;2024-02-15T04:51:08;9.90;99.90
8593;DHT22;4334;49.982;8.398;2024-02-15T04:53:36;9.90;99.90
8593;DHT22;4334;49.982;8.398;2024-02-15T04:56:04;9.90;99.90
8593;DHT22;4334;49.982;8.398;2024-02-15T04:58:36;9.90;99.90
8593;DHT22;4334;49.982;8.398;2024-02-15T05:01:05;9.90;99.90
8593;DHT22;4334;49.982;8.398;2024-02-15T05:03:32;9.90;99.90
8593;DHT22;4334;49.982;8.398;2024-02-15T05:06:00;9.90;99.90
8593;DHT22;4334;49.982;8.398;2024-02-15T05:08:27;9.90;99.90
8593;DHT22;4334;49.982;8.398;2024-02-15T05:10:57;9.90;99.90
8593;DHT22;4334;49.982;8.398;2024-02-15T05:13:24;9.90;99.90
8593;DHT22;4334;49.982;8.398;2024-02-15T05:15:51;9.90;99.90
8593;DHT22;4334;49.982;8.398;2024-02-15T05:18:19;9.90;99.90
8593;DHT22;4334;49.982;8.398;2024-02-15T05:20:45;10.80;99.90
8593;DHT22;4334;49.982;8.398;2024-02-15T05:23:12;9.90;99.90
8593;DHT22;4334;49.982;8.398;2024-02-15T05:25:40;9.90;99.90
8593;DHT22;4334;49.982;8.398;2024-02-15T05:28:07;9.90;99.90
8593;DHT22;4334;49.982;8.398;2024-02-15T05:30:34;9.90;99.90
8593;DHT22;4334;49.982;8.398;2024-02-15T05:33:03;9.90;99.90
8593;DHT22;4334;49.982;8.398;2024-02-15T05:35:34;9.90;99.90
8593;DHT22;4334;49.982;8.398;2024-02-15T05:38:04;9.90;99.90
8593;DHT22;4334;49.982;8.398;2024-02-15T05:40:32;9.90;99.90
8593;DHT22;4334;49.982;8.398;2024-02-15T05:42:59;9.90;99.90
8593;DHT22;4334;49.982;8.398;2024-02-15T05:45:31;9.90;99.90
8593;DHT22;4334;49.982;8.398;2024-02-15T05:48:04;9.90;99.90
8593;DHT22;4334;49.982;8.398;2024-02-15T05:50:33;9.90;99.90
8593;DHT22;4334;49.982;8.398;2024-02-15T05:53:00;9.90;99.90
8593;DHT22;4334;49.982;8.398;2024-02-15T05:55:27;9.90;99.90
8593;DHT22;4334;49.982;8.398;2024-02-15T05:57:54;9.90;99.90
8593;DHT22;4334;49.982;8.398;2024-02-15T06:00:21;9.80;99.90
8593;DHT22;4334;49.982;8.398;2024-02-15T06:02:48;9.90;99.90
8593;DHT22;4334;49.982;8.398;2024-02-15T06:05:15;9.90;99.90
8593;DHT22;4334;49.982;8.398;2024-02-15T06:07:45;10.40;99.90
8593;DHT22;4334;49.982;8.398;2024-02-15T06:10:12;9.90;99.90
8593;DHT22;4334;49.982;8.398;2024-02-15T06:12:41;11.00;99.90
8593;DHT22;4334;49.982;8.398;2024-02-15T06:15:09;9.90;99.90
8593;DHT22;4334;49.982;8.398;2024-02-15T06:17:41;9.90;99.90
8593;DHT22;4334;49.982;8.398;2024-02-15T06:20:10;9.90;99.90
8593;DHT22;4334;49.982;8.398;2024-02-15T06:22:39;9.90;99.90
8593;DHT22;4334;49.982;8.398;2024-02-15T06:25:07;10.00;99.90
8593;DHT22;4334;49.982;8.398;2024-02-15T06:27:35;10.00;99.90
8593;DHT22;4334;49.982;8.398;2024-02-15T06:30:06;10.00;99.90
8593;DHT22;4334;49.982;8.398;2024-02-15T06:32:51;10.00;99.90
8593;DHT22;4334;49.982;8.398;2024-02-15T06:35:35;10.10;99.90
8593;DHT22;4334;49.982;8.398;2024-02-15T06:38:20;10.00;99.90
8593;DHT22;4334;49.982;8.398;2024-02-15T06:41:05;10.20;99.90
8593;DHT22;4334;49.982;8.398;2024-02-15T06:43:32;10.20;99.90
8593;DHT22;4334;49.982;8.398;2024-02-15T06:46:00;10.20;99.90
8593;DHT22;4334;49.982;8.398;2024-02-15T06:48:27;10.20;99.90
8593;DHT22;4334;49.982;8.398;2024-02-15T06:50:54;10.20;99.90
8593;DHT22;4334;49.982;8.398;2024-02-15T06:53:20;11.70;99.90
8593;DHT22;4334;49.982;8.398;2024-02-15T06:55:47;10.20;99.90
8593;DHT22;4334;49.982;8.398;2024-02-15T06:58:16;10.20;99.90
8593;DHT22;4334;49.982;8.398;2024-02-15T07:00:43;10.20;99.90
8593;DHT22;4334;49.982;8.398;2024-02-15T07:03:10;10.20;99.90
8593;DHT22;4334;49.982;8.398;2024-02-15T07:05:37;10.20;99.90
8593;DHT22;4334;49.982;8.398;2024-02-15T07:08:05;10.30;99.90
8593;DHT22;4334;49.982;8.398;2024-02-15T07:10:32;10.30;99.90
8593;DHT22;4334;49.982;8.398;2024-02-15T07:12:59;10.30;99.90
8593;DHT22;4334;49.982;8.398;2024-02-15T07:15:27;10.30;99.90
8593;DHT22;4334;49.982;8.398;2024-02-15T07:18:02;10.40;99.90
8593;DHT22;4334;49.982;8.398;2024-02-15T07:20:31;10.40;99.90
8593;DHT22;4334;49.982;8.398;2024-02-15T07:22:58;10.50;99.90
8593;DHT22;4334;49.982;8.398;2024-02-15T07:25:24;10.60;99.90
8593;DHT22;4334;49.982;8.398;2024-02-15T07:27:51;10.60;99.90
8593;DHT22;4334;49.982;8.398;2024-02-15T07:30:19;10.70;99.90
8593;DHT22;4334;49.982;8.398;2024-02-15T07:32:48;9.60;99.90
8593;DHT22;4334;49.982;8.398;2024-02-15T07:35:15;10.80;99.90
8593;DHT22;4334;49.982;8.398;2024-02-15T07:37:51;10.80;99.90
8593;DHT22;4334;49.982;8.398;2024-02-15T07:40:19;10.90;99.90
8593;DHT22;4334;49.982;8.398;2024-02-15T07:42:47;10.90;99.90
8593;DHT22;4334;49.982;8.398;2024-02-15T07:45:14;10.90;99.90
8593;DHT22;4334;49.982;8.398;2024-02-15T07:47:41;10.90;99.90
8593;DHT22;4334;49.982;8.398;2024-02-15T07:50:09;11.00;99.90
8593;DHT22;4334;49.982;8.398;2024-02-15T07:52:38;11.00;99.90
8593;DHT22;4334;49.982;8.398;2024-02-15T07:55:05;11.20;99.90
8593;DHT22;4334;49.982;8.398;2024-02-15T07:57:34;11.20;99.90
8593;DHT22;4334;49.982;8.398;2024-02-15T08:00:01;15.40;99.90
8593;DHT22;4334;49.982;8.398;2024-02-15T08:02:30;11.40;99.90
8593;DHT22;4334;49.982;8.398;2024-02-15T08:04:57;11.40;99.90
8593;DHT22;4334;49.982;8.398;2024-02-15T08:07:25;11.40;99.90
8593;DHT22;4334;49.982;8.398;2024-02-15T08:09:57;11.50;99.90
8593;DHT22;4334;49.982;8.398;2024-02-15T08:12:23;13.40;99.90
8593;DHT22;4334;49.982;8.398;2024-02-15T08:14:51;10.50;99.90
8593;DHT22;4334;49.982;8.398;2024-02-15T08:17:18;13.70;99.90
8593;DHT22;4334;49.982;8.398;2024-02-15T08:19:45;12.40;99.90
8593;DHT22;4334;49.982;8.398;2024-02-15T08:22:11;11.80;99.90
8593;DHT22;4334;49.982;8.398;2024-02-15T08:24:39;11.90;99.90
8593;DHT22;4334;49.982;8.398;2024-02-15T08:27:06;12.00;99.90
8593;DHT22;4334;49.982;8.398;2024-02-15T08:29:33;12.00;99.90
8593;DHT22;4334;49.982;8.398;2024-02-15T08:32:00;12.00;99.90
8593;DHT22;4334;49.982;8.398;2024-02-15T08:34:27;12.10;99.90
8593;DHT22;4334;49.982;8.398;2024-02-15T08:36:54;15.50;99.90
8593;DHT22;4334;49.982;8.398;2024-02-15T08:39:20;12.30;99.90
8593;DHT22;4334;49.982;8.398;2024-02-15T08:41:50;12.30;99.90
8593;DHT22;4334;49.982;8.398;2024-02-15T08:44:18;12.40;99.90
8593;DHT22;4334;49.982;8.398;2024-02-15T08:46:47;12.50;99.90
8593;DHT22;4334;49.982;8.398;2024-02-15T08:49:14;12.50;99.90
8593;DHT22;4334;49.982;8.398;2024-02-15T08:51:40;12.60;99.90
8593;DHT22;4334;49.982;8.398;2024-02-15T08:54:07;12.90;99.90
8593;DHT22;4334;49.982;8.398;2024-02-15T08:56:35;12.80;99.90
8593;DHT22;4334;49.982;8.398;2024-02-15T08:59:03;12.80;99.90
8593;DHT22;4334;49.982;8.398;2024-02-15T09:01:30;12.80;99.90
8593;DHT22;4334;49.982;8.398;2024-02-15T09:03:57;12.80;99.90
8593;DHT22;4334;49.982;8.398;2024-02-15T09:06:24;12.80;99.90
8593;DHT22;4334;49.982;8.398;2024-02-15T09:08:51;13.00;99.90
8593;DHT22;4334;49.982;8.398;2024-02-15T09:11:18;13.10;99.90
8593;DHT22;4334;49.982;8.398;2024-02-15T09:13:44;13.00;99.90
8593;DHT22;4334;49.982;8.398;2024-02-15T09:16:13;12.90;99.90
8593;DHT22;4334;49.982;8.398;2024-02-15T09:18:40;13.10;99.90
8593;DHT22;4334;49.982;8.398;2024-02-15T09:21:10;13.10;99.90
8593;DHT22;4334;49.982;8.398;2024-02-15T09:23:37;13.00;99.90
8593;DHT22;4334;49.982;8.398;2024-02-15T09:26:04;13.40;99.90
8593;DHT22;4334;49.982;8.398;2024-02-15T09:28:31;13.60;99.90
8593;DHT22;4334;49.982;8.398;2024-02-15T09:30:58;13.80;99.90
8593;DHT22;4334;49.982;8.398;2024-02-15T09:33:28;14.10;99.90
8593;DHT22;4334;49.982;8.398;2024-02-15T09:35:55;14.20;99.90
8593;DHT22;4334;49.982;8.398;2024-02-15T09:38:21;14.10;99.90
8593;DHT22;4334;49.982;8.398;2024-02-15T09:40:50;14.10;99.90
8593;DHT22;4334;49.982;8.398;2024-02-15T09:43:17;14.00;99.90
8593;DHT22;4334;49.982;8.398;2024-02-15T09:45:44;14.00;99.90
8593;DHT22;4334;49.982;8.398;2024-02-15T09:48:11;14.10;99.90
8593;DHT22;4334;49.982;8.398;2024-02-15T09:50:41;14.30;99.90
8593;DHT22;4334;49.982;8.398;2024-02-15T09:53:09;14.60;99.90
8593;DHT22;4334;49.982;8.398;2024-02-15T09:55:36;14.70;99.90
8593;DHT22;4334;49.982;8.398;2024-02-15T09:58:03;14.90;99.90
8593;DHT22;4334;49.982;8.398;2024-02-15T10:00:31;15.00;99.90
8593;DHT22;4334;49.982;8.398;2024-02-15T10:03:00;15.40;99.90
8593;DHT22;4334;49.982;8.398;2024-02-15T10:05:29;16.80;99.90
8593;DHT22;4334;49.982;8.398;2024-02-15T10:07:58;16.00;99.90
8593;DHT22;4334;49.982;8.398;2024-02-15T10:10:27;16.00;99.90
8593;DHT22;4334;49.982;8.398;2024-02-15T10:12:55;16.10;99.90
8593;DHT22;4334;49.982;8.398;2024-02-15T10:15:33;16.30;99.90
8593;DHT22;4334;49.982;8.398;2024-02-15T10:18:01;16.40;99.90
8593;DHT22;4334;49.982;8.398;2024-02-15T10:20:28;16.40;99.90
8593;DHT22;4334;49.982;8.398;2024-02-15T10:23:09;17.80;99.90
8593;DHT22;4334;49.982;8.398;2024-02-15T10:25:37;16.50;99.90
8593;DHT22;4334;49.982;8.398;2024-02-15T10:28:04;16.50;99.90
8593;DHT22;4334;49.982;8.398;2024-02-15T10:30:33;16.70;99.90
8593;DHT22;4334;49.982;8.398;2024-02-15T10:33:00;17.10;99.90
8593;DHT22;4334;49.982;8.398;2024-02-15T10:35:28;17.90;99.90
8593;DHT22;4334;49.982;8.398;2024-02-15T10:38:06;18.70;99.90
8593;DHT22;4334;49.982;8.398;2024-02-15T10:40:34;18.20;99.90
8593;DHT22;4334;49.982;8.398;2024-02-15T10:43:03;22.40;99.90
8593;DHT22;4334;49.982;8.398;2024-02-15T10:45:31;18.20;99.90
8593;DHT22;4334;49.982;8.398;2024-02-15T10:47:58;18.20;99.90
8593;DHT22;4334;49.982;8.398;2024-02-15T10:50:25;22.60;99.90
8593;DHT22;4334;49.982;8.398;2024-02-15T10:52:54;18.40;99.90
8593;DHT22;4334;49.982;8.398;2024-02-15T10:55:31;18.50;99.90
8593;DHT22;4334;49.982;8.398;2024-02-15T10:58:05;19.00;99.90
8593;DHT22;4334;49.982;8.398;2024-02-15T11:00:33;19.30;99.90
8593;DHT22;4334;49.982;8.398;2024-02-15T11:03:03;18.70;99.90
8593;DHT22;4334;49.982;8.398;2024-02-15T11:05:33;18.10;99.90
8593;DHT22;4334;49.982;8.398;2024-02-15T11:08:02;13.50;99.90
8593;DHT22;4334;49.982;8.398;2024-02-15T11:10:32;16.30;99.90
8593;DHT22;4334;49.982;8.398;2024-02-15T11:12:59;16.00;99.90
8593;DHT22;4334;49.982;8.398;2024-02-15T11:15:45;16.20;99.90
8593;DHT22;4334;49.982;8.398;2024-02-15T11:18:43;16.80;99.90
8593;DHT22;4334;49.982;8.398;2024-02-15T11:21:17;17.20;99.90
8593;DHT22;4334;49.982;8.398;2024-02-15T11:23:44;17.30;99.90
8593;DHT22;4334;49.982;8.398;2024-02-15T11:26:45;17.30;99.90
8593;DHT22;4334;49.982;8.398;2024-02-15T11:32:35;17.90;99.90
8593;DHT22;4334;49.982;8.398;2024-02-15T11:35:06;17.70;99.90
8593;DHT22;4334;49.982;8.398;2024-02-15T11:37:56;17.80;99.90
8593;DHT22;4334;49.982;8.398;2024-02-15T11:40:27;17.30;99.90
8593;DHT22;4334;49.982;8.398;2024-02-15T11:42:57;17.10;99.90
8593;DHT22;4334;49.982;8.398;2024-02-15T11:45:25;17.00;99.90
8593;DHT22;4334;49.982;8.398;2024-02-15T11:47:58;17.10;99.90
8593;DHT22;4334;49.982;8.398;2024-02-15T11:50:27;17.30;99.90
8593;DHT22;4334;49.982;8.398;2024-02-15T11:53:03;17.30;99.90
8593;DHT22;4334;49.982;8.398;2024-02-15T11:55:31;17.20;99.90
8593;DHT22;4334;49.982;8.398;2024-02-15T11:58:00;17.20;99.90
8593;DHT22;4334;49.982;8.398;2024-02-15T12:00:31;17.00;99.90
8593;DHT22;4334;49.982;8.398;2024-02-15T12:03:16;17.10;99.90
8593;DHT22;4334;49.982;8.398;2024-02-15T12:06:02;16.70;99.90
8593;DHT22;4334;49.982;8.398;2024-02-15T12:08:47;17.30;99.90
8593;DHT22;4334;49.982;8.398;2024-02-15T12:11:32;17.60;99.90
8593;DHT22;4334;49.982;8.398;2024-02-15T12:14:18;18.00;99.90
8593;DHT22;4334;49.982;8.398;2024-02-15T12:17:03;18.20;99.90
8593;DHT22;4334;49.982;8.398;2024-02-15T12:19:49;18.60;99.90
8593;DHT22;4334;49.982;8.398;2024-02-15T12:22:19;18.30;99.90
8593;DHT22;4334;49.982;8.398;2024-02-15T12:24:53;17.60;99.90
8593;DHT22;4334;49.982;8.398;2024-02-15T12:27:21;20.90;99.90
8593;DHT22;4334;49.982;8.398;2024-02-15T12:29:54;17.80;99.90
8593;DHT22;4334;49.982;8.398;2024-02-15T12:32:22;17.60;99.90
8593;DHT22;4334;49.982;8.398;2024-02-15T12:34:49;17.40;99.90
8593;DHT22;4334;49.982;8.398;2024-02-15T12:37:18;17.00;99.90
8593;DHT22;4334;49.982;8.398;2024-02-15T12:39:46;17.20;99.90
8593;DHT22;4334;49.982;8.398;2024-02-15T12:42:14;20.20;99.90
8593;DHT22;4334;49.982;8.398;2024-02-15T12:44:44;17.90;99.90
8593;DHT22;4334;49.982;8.398;2024-02-15T12:47:22;21.80;99.90
8593;DHT22;4334;49.982;8.398;2024-02-15T12:49:50;18.30;99.90
8593;DHT22;4334;49.982;8.398;2024-02-15T12:52:33;18.00;99.90
8593;DHT22;4334;49.982;8.398;2024-02-15T12:55:13;17.40;99.90
8593;DHT22;4334;49.982;8.398;2024-02-15T12:57:41;17.00;99.90
8593;DHT22;4334;49.982;8.398;2024-02-15T13:00:11;17.10;99.90
8593;DHT22;4334;49.982;8.398;2024-02-15T13:02:44;17.30;99.90
8593;DHT22;4334;49.982;8.398;2024-02-15T13:05:12;17.20;99.90
8593;DHT22;4334;49.982;8.398;2024-02-15T13:07:39;18.50;99.90
8593;DHT22;4334;49.982;8.398;2024-02-15T13:10:06;16.70;99.90
8593;DHT22;4334;49.982;8.398;2024-02-15T13:12:34;16.80;99.90
8593;DHT22;4334;49.982;8.398;2024-02-15T13:15:03;16.70;99.90
8593;DHT22;4334;49.982;8.398;2024-02-15T13:17:30;16.60;99.90
8593;DHT22;4334;49.982;8.398;2024-02-15T13:20:00;16.60;99.90
8593;DHT22;4334;49.982;8.398;2024-02-15T13:22:31;16.50;99.90
8593;DHT22;4334;49.982;8.398;2024-02-15T13:24:59;16.40;99.90
8593;DHT22;4334;49.982;8.398;2024-02-15T13:27:28;16.30;99.90
8593;DHT22;4334;49.982;8.398;2024-02-15T13:29:56;16.40;99.90
8593;DHT22;4334;49.982;8.398;2024-02-15T13:32:23;16.50;99.90
8593;DHT22;4334;49.982;8.398;2024-02-15T13:34:51;18.60;99.90
8593;DHT22;4334;49.982;8.398;2024-02-15T13:37:22;16.60;99.90
8593;DHT22;4334;49.982;8.398;2024-02-15T13:39:50;16.40;99.90
8593;DHT22;4334;49.982;8.398;2024-02-15T13:42:16;18.60;99.90
8593;DHT22;4334;49.982;8.398;2024-02-15T13:44:44;16.30;99.90
8593;DHT22;4334;49.982;8.398;2024-02-15T13:47:12;16.50;99.90
8593;DHT22;4334;49.982;8.398;2024-02-15T13:49:41;16.50;99.90
8593;DHT22;4334;49.982;8.398;2024-02-15T13:52:08;16.50;99.90
8593;DHT22;4334;49.982;8.398;2024-02-15T13:54:37;16.60;99.90
8593;DHT22;4334;49.982;8.398;2024-02-15T13:57:04;16.70;99.90
8593;DHT22;4334;49.982;8.398;2024-02-15T13:59:32;16.70;99.90
8593;DHT22;4334;49.982;8.398;2024-02-15T14:02:00;16.50;99.90
8593;DHT22;4334;49.982;8.398;2024-02-15T14:04:29;16.20;99.90
8593;DHT22;4334;49.982;8.398;2024-02-15T14:06:57;18.70;99.90
8593;DHT22;4334;49.982;8.398;2024-02-15T14:09:24;16.20;99.90
8593;DHT22;4334;49.982;8.398;2024-02-15T14:11:53;16.30;99.90
8593;DHT22;4334;49.982;8.398;2024-02-15T14:14:20;16.30;99.90
8593;DHT22;4334;49.982;8.398;2024-02-15T14:16:47;15.90;99.90
8593;DHT22;4334;49.982;8.398;2024-02-15T14:19:14;15.70;99.90
8593;DHT22;4334;49.982;8.398;2024-02-15T14:21:41;15.80;99.90
8593;DHT22;4334;49.982;8.398;2024-02-15T14:24:10;15.90;99.90
8593;DHT22;4334;49.982;8.398;2024-02-15T14:26:37;15.90;99.90
8593;DHT22;4334;49.982;8.398;2024-02-15T14:29:05;16.00;99.90
8593;DHT22;4334;49.982;8.398;2024-02-15T14:31:31;16.00;99.90
8593;DHT22;4334;49.982;8.398;2024-02-15T14:34:16;15.90;99.90
8593;DHT22;4334;49.982;8.398;2024-02-15T14:36:46;16.00;99.90
8593;DHT22;4334;49.982;8.398;2024-02-15T14:39:13;16.00;99.90
8593;DHT22;4334;49.982;8.398;2024-02-15T14:41:40;16.10;99.90
8593;DHT22;4334;49.982;8.398;2024-02-15T14:44:10;16.10;99.90
8593;DHT22;4334;49.982;8.398;2024-02-15T14:46:38;16.00;99.90
8593;DHT22;4334;49.982;8.398;2024-02-15T14:49:05;15.90;99.90
8593;DHT22;4334;49.982;8.398;2024-02-15T14:51:33;15.90;99.90
8593;DHT22;4334;49.982;8.398;2024-02-15T14:54:02;15.80;99.90
8593;DHT22;4334;49.982;8.398;2024-02-15T14:56:29;15.60;99.90
8593;DHT22;4334;49.982;8.398;2024-02-15T14:58:58;15.50;99.90
8593;DHT22;4334;49.982;8.398;2024-02-15T15:01:27;15.40;99.90
8593;DHT22;4334;49.982;8.398;2024-02-15T15:03:55;15.40;99.90
8593;DHT22;4334;49.982;8.398;2024-02-15T15:06:24;15.40;99.90
8593;DHT22;4334;49.982;8.398;2024-02-15T15:09:16;15.30;99.90
8593;DHT22;4334;49.982;8.398;2024-02-15T15:12:01;15.30;99.90
8593;DHT22;4334;49.982;8.398;2024-02-15T15:14:45;16.60;99.90
8593;DHT22;4334;49.982;8.398;2024-02-15T15:17:14;15.20;99.90
8593;DHT22;4334;49.982;8.398;2024-02-15T15:19:42;15.20;99.90
8593;DHT22;4334;49.982;8.398;2024-02-15T15:22:09;15.20;99.90
8593;DHT22;4334;49.982;8.398;2024-02-15T15:24:36;15.20;99.90
8593;DHT22;4334;49.982;8.398;2024-02-15T15:27:03;15.10;99.90
8593;DHT22;4334;49.982;8.398;2024-02-15T15:29:31;15.00;99.90
8593;DHT22;4334;49.982;8.398;2024-02-15T15:31:58;15.00;99.90
8593;DHT22;4334;49.982;8.398;2024-02-15T15:34:26;18.20;99.90
8593;DHT22;4334;49.982;8.398;2024-02-15T15:36:53;14.90;99.90
8593;DHT22;4334;49.982;8.398;2024-02-15T15:39:20;15.50;99.90
8593;DHT22;4334;49.982;8.398;2024-02-15T15:41:50;14.80;99.90
8593;DHT22;4334;49.982;8.398;2024-02-15T15:44:19;14.80;99.90
8593;DHT22;4334;49.982;8.398;2024-02-15T15:46:48;14.80;99.90
8593;DHT22;4334;49.982;8.398;2024-02-15T15:49:15;14.80;99.90
8593;DHT22;4334;49.982;8.398;2024-02-15T15:51:43;14.80;99.90
8593;DHT22;4334;49.982;8.398;2024-02-15T15:54:10;14.70;99.90
8593;DHT22;4334;49.982;8.398;2024-02-15T15:56:36;14.60;99.90
8593;DHT22;4334;49.982;8.398;2024-02-15T15:59:03;14.60;99.90
8593;DHT22;4334;49.982;8.398;2024-02-15T16:01:31;17.90;99.90
8593;DHT22;4334;49.982;8.398;2024-02-15T16:03:58;17.40;99.90
8593;DHT22;4334;49.982;8.398;2024-02-15T16:06:24;14.50;99.90
8593;DHT22;4334;49.982;8.398;2024-02-15T16:08:52;14.40;99.90
8593;DHT22;4334;49.982;8.398;2024-02-15T16:11:19;16.20;99.90
8593;DHT22;4334;49.982;8.398;2024-02-15T16:13:46;14.20;99.90
8593;DHT22;4334;49.982;8.398;2024-02-15T16:16:13;14.20;99.90
8593;DHT22;4334;49.982;8.398;2024-02-15T16:18:40;14.10;99.90